createdAt,value
2022-10-14T00:01:42.172Z,16.38
2022-10-14T00:04:08.786Z,16.16
2022-10-14T00:06:35.319Z,16.39
2022-10-14T00:09:05.487Z,16.37
2022-10-14T00:11:32.874Z,16.22
2022-10-14T00:14:02.209Z,16.44
2022-10-14T00:16:31.294Z,16.35
2022-10-14T00:18:58.375Z,16.32
2022-10-14T00:21:25.256Z,16.38
2022-10-14T00:23:51.682Z,16.34
2022-10-14T00:26:29.238Z,16.36
2022-10-14T00:28:57.167Z,16.41
2022-10-14T00:31:24.405Z,16.12
2022-10-14T00:33:50.913Z,16.46
2022-10-14T00:36:20.121Z,16.40
2022-10-14T00:38:47.056Z,16.38
2022-10-14T00:41:19.765Z,16.43
2022-10-14T00:43:55.704Z,16.47
2022-10-14T00:46:23.530Z,16.49
2022-10-14T00:48:50.213Z,16.38
2022-10-14T00:51:17.306Z,16.42
2022-10-14T00:53:44.334Z,16.36
2022-10-14T00:56:11.669Z,16.33
2022-10-14T00:58:38.686Z,16.27
2022-10-14T01:01:05.353Z,16.25
2022-10-14T01:03:33.217Z,16.21
2022-10-14T01:06:15.246Z,16.16
2022-10-14T01:08:53.260Z,16.32
2022-10-14T01:12:09.764Z,16.24
2022-10-14T01:14:59.887Z,16.21
2022-10-14T01:17:33.268Z,16.08
2022-10-14T01:20:40.112Z,16.05
2022-10-14T01:23:19.046Z,15.86
2022-10-14T01:26:02.241Z,15.96
2022-10-14T01:28:51.199Z,15.97
2022-10-14T01:31:24.317Z,16.02
2022-10-14T01:33:53.771Z,15.86
2022-10-14T01:36:33.988Z,15.97
2022-10-14T01:39:05.936Z,16.02
2022-10-14T01:41:38.857Z,15.96
2022-10-14T01:44:10.644Z,16.05
2022-10-14T01:46:38.990Z,15.87
2022-10-14T01:49:10.548Z,16.01
2022-10-14T01:51:41.624Z,15.90
2022-10-14T01:54:15.425Z,15.96
2022-10-14T01:56:43.128Z,16.02
2022-10-14T01:59:10.810Z,15.77
2022-10-14T02:01:37.408Z,15.91
2022-10-14T02:04:14.448Z,15.94
2022-10-14T02:06:43.740Z,15.98
2022-10-14T02:09:30.812Z,15.96
2022-10-14T02:12:15.812Z,16.11
2022-10-14T02:15:11.036Z,15.97
2022-10-14T02:17:46.173Z,16.23
2022-10-14T02:20:27.753Z,16.03
2022-10-14T02:23:21.424Z,16.01
2022-10-14T02:25:49.411Z,16.12
2022-10-14T02:28:19.577Z,16.05
2022-10-14T02:30:52.238Z,16.02
2022-10-14T02:33:21.073Z,15.95
2022-10-14T02:35:49.159Z,15.89
2022-10-14T02:38:16.209Z,15.90
2022-10-14T02:40:46.000Z,16.15
2022-10-14T02:43:12.850Z,16.04
2022-10-14T02:45:40.506Z,16.14
2022-10-14T02:48:07.581Z,15.76
2022-10-14T02:50:34.127Z,15.71
2022-10-14T02:53:00.612Z,15.85
2022-10-14T02:55:27.089Z,15.93
2022-10-14T02:57:53.586Z,15.66
2022-10-14T03:00:20.982Z,15.81
2022-10-14T03:02:47.437Z,15.82
2022-10-14T03:05:13.949Z,15.70
2022-10-14T03:07:40.509Z,15.96
2022-10-14T03:10:07.189Z,15.84
2022-10-14T03:12:33.650Z,15.95
2022-10-14T03:15:00.097Z,15.91
2022-10-14T03:17:26.774Z,15.75
2022-10-14T03:19:53.206Z,15.95
2022-10-14T03:22:20.152Z,15.74
2022-10-14T03:24:46.828Z,15.88
2022-10-14T03:27:13.273Z,15.97
2022-10-14T03:29:40.766Z,15.74
2022-10-14T03:32:07.235Z,15.86
2022-10-14T03:34:33.668Z,15.74
2022-10-14T03:37:00.126Z,15.94
2022-10-14T03:39:26.588Z,15.88
2022-10-14T03:41:53.045Z,15.81
2022-10-14T03:44:19.524Z,15.87
2022-10-14T03:46:46.044Z,15.85
2022-10-14T03:49:12.998Z,15.93
2022-10-14T03:51:39.514Z,15.91
2022-10-14T03:54:06.311Z,15.85
2022-10-14T03:56:32.781Z,16.02
2022-10-14T03:58:59.227Z,15.88
2022-10-14T04:01:25.809Z,15.90
2022-10-14T04:03:52.321Z,15.85
2022-10-14T04:06:18.789Z,15.97
2022-10-14T04:08:45.261Z,15.91
2022-10-14T04:11:11.762Z,15.79
2022-10-14T04:13:38.214Z,15.72
2022-10-14T04:16:09.094Z,15.66
2022-10-14T04:18:36.150Z,15.81
2022-10-14T04:21:05.084Z,15.84
2022-10-14T04:23:32.106Z,15.70
2022-10-14T04:25:58.699Z,15.77
2022-10-14T04:28:25.225Z,15.61
2022-10-14T04:30:51.718Z,15.90
2022-10-14T04:33:18.157Z,15.93
2022-10-14T04:35:44.609Z,15.87
2022-10-14T04:38:11.088Z,15.92
2022-10-14T04:40:37.517Z,15.81
2022-10-14T04:43:04.036Z,15.75
2022-10-14T04:45:30.490Z,15.66
2022-10-14T04:47:56.954Z,15.81
2022-10-14T04:50:23.524Z,15.81
2022-10-14T04:52:49.982Z,15.79
2022-10-14T04:55:16.448Z,15.77
2022-10-14T04:57:43.953Z,15.84
2022-10-14T05:00:13.792Z,15.82
2022-10-14T05:02:40.277Z,15.83
2022-10-14T05:05:07.329Z,15.70
2022-10-14T05:07:34.532Z,15.75
2022-10-14T05:10:01.557Z,15.68
2022-10-14T05:12:28.461Z,15.69
2022-10-14T05:14:55.123Z,15.82
2022-10-14T05:17:21.798Z,15.81
2022-10-14T05:19:48.564Z,15.85
2022-10-14T05:22:15.221Z,15.78
2022-10-14T05:24:41.901Z,15.81
2022-10-14T05:27:08.376Z,15.81
2022-10-14T05:29:34.821Z,15.72
2022-10-14T05:32:01.389Z,15.86
2022-10-14T05:34:27.826Z,15.85
2022-10-14T05:36:54.316Z,15.83
2022-10-14T05:39:20.785Z,15.87
2022-10-14T05:41:47.247Z,15.87
2022-10-14T05:44:13.673Z,15.90
2022-10-14T05:46:40.122Z,15.84
2022-10-14T05:49:06.653Z,15.86
2022-10-14T05:51:33.497Z,15.85
2022-10-14T05:54:00.288Z,15.80
2022-10-14T05:56:26.880Z,15.77
2022-10-14T05:58:53.429Z,15.82
2022-10-14T06:01:19.878Z,15.71
2022-10-14T06:03:50.095Z,15.73
2022-10-14T06:06:16.833Z,15.61
2022-10-14T06:08:43.784Z,15.61
2022-10-14T06:11:10.689Z,15.62
2022-10-14T06:13:37.601Z,15.68
2022-10-14T06:16:05.680Z,15.73
2022-10-14T06:18:33.051Z,15.67
2022-10-14T06:21:00.091Z,15.75
2022-10-14T06:23:27.079Z,15.77
2022-10-14T06:25:53.915Z,15.69
2022-10-14T06:28:20.470Z,15.75
2022-10-14T06:30:54.280Z,15.83
2022-10-14T06:33:21.449Z,15.77
2022-10-14T06:35:48.308Z,15.84
2022-10-14T06:38:15.026Z,15.88
2022-10-14T06:40:41.586Z,15.95
2022-10-14T06:43:08.053Z,15.97
2022-10-14T06:45:34.506Z,16.03
2022-10-14T06:48:00.995Z,15.90
2022-10-14T06:50:27.415Z,15.96
2022-10-14T06:52:53.864Z,16.03
2022-10-14T06:55:20.298Z,15.94
2022-10-14T06:57:46.778Z,16.07
2022-10-14T07:00:13.728Z,16.06
2022-10-14T07:02:40.284Z,15.99
2022-10-14T07:05:06.906Z,16.13
2022-10-14T07:07:33.523Z,16.12
2022-10-14T07:10:00.081Z,15.94
2022-10-14T07:12:26.736Z,15.93
2022-10-14T07:14:53.288Z,16.03
2022-10-14T07:17:20.128Z,16.04
2022-10-14T07:19:46.915Z,16.00
2022-10-14T07:22:13.419Z,15.84
2022-10-14T07:24:39.854Z,16.06
2022-10-14T07:27:09.190Z,16.24
2022-10-14T07:29:35.699Z,16.27
2022-10-14T07:32:02.370Z,16.31
2022-10-14T07:34:29.010Z,16.35
2022-10-14T07:36:55.512Z,16.33
2022-10-14T07:39:21.948Z,16.50
2022-10-14T07:41:48.523Z,16.38
2022-10-14T07:44:16.781Z,16.71
2022-10-14T07:46:44.805Z,16.87
2022-10-14T07:49:14.897Z,16.92
2022-10-14T07:51:42.274Z,16.75
2022-10-14T07:54:13.392Z,16.68
2022-10-14T07:56:42.943Z,16.62
2022-10-14T07:59:09.956Z,16.71
2022-10-14T08:01:37.145Z,16.53
2022-10-14T08:04:04.077Z,16.65
2022-10-14T08:06:30.630Z,16.81
2022-10-14T08:08:57.170Z,16.72
2022-10-14T08:11:26.156Z,16.91
2022-10-14T08:13:53.209Z,16.94
2022-10-14T08:16:27.924Z,16.90
2022-10-14T08:18:59.479Z,16.84
2022-10-14T08:21:26.941Z,16.76
2022-10-14T08:23:54.933Z,16.60
2022-10-14T08:26:22.669Z,16.34
2022-10-14T08:28:50.308Z,16.53
2022-10-14T08:31:17.446Z,16.58
2022-10-14T08:33:44.044Z,16.59
2022-10-14T08:36:10.544Z,16.42
2022-10-14T08:38:37.031Z,16.63
2022-10-14T08:41:03.437Z,16.49
2022-10-14T08:43:36.892Z,16.59
2022-10-14T08:46:16.148Z,16.71
2022-10-14T08:48:42.966Z,16.81
2022-10-14T08:51:14.854Z,16.74
2022-10-14T08:53:46.606Z,16.67
2022-10-14T08:56:13.936Z,16.80
2022-10-14T08:58:49.832Z,16.93
2022-10-14T09:01:26.848Z,16.57
2022-10-14T09:04:00.167Z,16.24
2022-10-14T09:06:29.054Z,16.50
2022-10-14T09:09:06.441Z,16.60
2022-10-14T09:11:39.340Z,16.81
2022-10-14T09:14:07.866Z,16.78
2022-10-14T09:16:36.679Z,16.72
2022-10-14T09:19:05.813Z,16.64
2022-10-14T09:24:23.929Z,16.95
2022-10-14T09:27:23.566Z,16.96
2022-10-14T09:29:52.873Z,17.20
2022-10-14T09:32:29.767Z,17.40
2022-10-14T09:34:57.452Z,17.42
2022-10-14T09:37:35.242Z,17.60
2022-10-14T09:40:25.009Z,18.14
2022-10-14T09:43:09.697Z,18.26
2022-10-14T09:45:51.446Z,18.18
2022-10-14T09:48:38.108Z,18.01
2022-10-14T09:51:10.126Z,17.92
2022-10-14T09:53:41.135Z,17.84
2022-10-14T09:56:08.775Z,17.18
2022-10-14T09:58:53.531Z,17.60
2022-10-14T10:01:22.112Z,17.49
2022-10-14T10:03:50.318Z,17.29
2022-10-14T10:06:19.304Z,17.31
2022-10-14T10:09:04.045Z,17.13
2022-10-14T10:11:38.402Z,16.99
2022-10-14T10:14:23.724Z,16.94
2022-10-14T10:19:34.859Z,17.06
2022-10-14T10:25:01.151Z,17.58
2022-10-14T10:27:55.026Z,17.81
2022-10-14T10:30:21.432Z,18.11
2022-10-14T10:33:09.658Z,18.04
2022-10-14T10:35:54.077Z,18.40
2022-10-14T10:38:39.978Z,17.70
2022-10-14T10:41:15.623Z,18.10
2022-10-14T10:44:00.317Z,17.99
2022-10-14T10:47:05.783Z,18.87
2022-10-14T10:49:50.854Z,18.67
2022-10-14T10:52:35.499Z,19.07
2022-10-14T10:55:12.674Z,18.57
2022-10-14T10:57:53.046Z,19.06
2022-10-14T11:03:30.985Z,18.14
2022-10-14T11:06:03.432Z,18.12
2022-10-14T11:09:18.119Z,17.92
2022-10-14T11:12:15.659Z,18.62
2022-10-14T11:15:00.535Z,18.62
2022-10-14T11:18:05.376Z,18.47
2022-10-14T11:20:40.071Z,18.04
2022-10-14T11:23:57.088Z,17.84
2022-10-14T11:26:59.720Z,17.57
2022-10-14T11:29:35.533Z,17.53
2022-10-14T11:32:12.259Z,18.29
2022-10-14T11:35:01.421Z,18.66
2022-10-14T11:37:46.630Z,18.98
2022-10-14T11:40:26.170Z,18.61
2022-10-14T11:43:26.881Z,18.68
2022-10-14T11:45:57.698Z,18.65
2022-10-14T11:48:24.161Z,18.49
2022-10-14T11:50:56.376Z,18.32
2022-10-14T11:53:52.046Z,18.01
2022-10-14T11:56:37.249Z,17.68
2022-10-14T11:59:24.997Z,17.73
2022-10-14T12:01:55.883Z,18.59
2022-10-14T12:04:32.043Z,18.88
2022-10-14T12:07:10.986Z,18.92
2022-10-14T12:09:50.635Z,18.72
2022-10-14T12:12:20.284Z,18.08
2022-10-14T12:14:52.538Z,17.80
2022-10-14T12:17:23.634Z,18.71
2022-10-14T12:19:51.302Z,18.60
2022-10-14T12:22:26.104Z,18.22
2022-10-14T12:24:58.994Z,19.08
2022-10-14T12:27:27.256Z,19.05
2022-10-14T12:30:00.219Z,18.47
2022-10-14T12:32:28.047Z,18.17
2022-10-14T12:34:56.303Z,18.00
2022-10-14T12:37:42.846Z,18.07
2022-10-14T12:40:12.875Z,18.19
2022-10-14T12:42:42.478Z,17.83
2022-10-14T12:45:35.537Z,18.57
2022-10-14T12:48:08.078Z,18.23
2022-10-14T12:50:38.433Z,18.16
2022-10-14T12:53:17.425Z,17.70
2022-10-14T12:55:53.524Z,17.78
2022-10-14T12:58:24.250Z,18.41
2022-10-14T13:01:00.558Z,18.29
2022-10-14T13:03:32.040Z,18.70
2022-10-14T13:06:26.432Z,18.71
2022-10-14T13:09:11.410Z,19.29
2022-10-14T13:11:58.578Z,18.57
2022-10-14T13:14:31.144Z,18.21
2022-10-14T13:17:02.553Z,18.36
2022-10-14T13:19:35.140Z,18.39
2022-10-14T13:24:43.537Z,18.20
2022-10-14T13:27:30.081Z,18.13
2022-10-14T13:30:15.264Z,17.98
2022-10-14T13:32:50.426Z,17.82
2022-10-14T13:35:43.961Z,17.86
2022-10-14T13:38:15.626Z,18.11
2022-10-14T13:40:53.756Z,18.18
2022-10-14T13:43:26.701Z,18.50
2022-10-14T13:45:58.108Z,17.92
2022-10-14T13:48:31.880Z,18.25
2022-10-14T13:51:31.464Z,17.84
2022-10-14T13:54:09.719Z,17.88
2022-10-14T13:56:36.149Z,17.77
2022-10-14T13:59:05.436Z,17.92
2022-10-14T14:01:39.241Z,17.54
2022-10-14T14:04:06.048Z,17.27
2022-10-14T14:06:40.073Z,17.55
2022-10-14T14:09:22.543Z,17.57
2022-10-14T14:11:50.543Z,17.34
2022-10-14T14:14:26.804Z,17.09
2022-10-14T14:16:58.502Z,17.11
2022-10-14T14:19:34.242Z,17.66
2022-10-14T14:22:06.670Z,17.83
2022-10-14T14:24:34.286Z,17.44
2022-10-14T14:27:01.388Z,17.26
2022-10-14T14:29:31.305Z,17.51
2022-10-14T14:32:07.943Z,17.37
2022-10-14T14:34:36.437Z,17.49
2022-10-14T14:37:32.037Z,17.74
2022-10-14T14:39:57.678Z,17.21
2022-10-14T14:42:33.063Z,17.18
2022-10-14T14:45:04.917Z,17.57
2022-10-14T14:47:31.806Z,17.44
2022-10-14T14:50:18.299Z,17.27
2022-10-14T14:52:47.238Z,17.15
2022-10-14T14:55:33.379Z,16.99
2022-10-14T14:58:01.021Z,17.09
2022-10-14T15:00:27.477Z,17.14
2022-10-14T15:02:59.942Z,16.95
2022-10-14T15:05:27.021Z,17.08
2022-10-14T15:07:53.736Z,16.96
2022-10-14T15:10:27.575Z,17.15
2022-10-14T15:12:56.334Z,17.07
2022-10-14T15:15:30.802Z,17.05
2022-10-14T15:18:12.931Z,17.05
2022-10-14T15:20:39.987Z,17.18
2022-10-14T15:23:38.055Z,17.21
2022-10-14T15:26:20.124Z,17.12
2022-10-14T15:28:46.639Z,17.17
2022-10-14T15:31:16.569Z,17.23
2022-10-14T15:33:43.063Z,17.26
2022-10-14T15:36:10.753Z,17.19
2022-10-14T15:38:37.227Z,17.15
2022-10-14T15:41:05.333Z,17.15
2022-10-14T15:43:32.759Z,17.06
2022-10-14T15:46:18.455Z,17.05
2022-10-14T15:48:52.651Z,17.18
2022-10-14T15:51:20.332Z,17.07
2022-10-14T15:53:46.821Z,16.90
2022-10-14T15:56:13.264Z,16.92
2022-10-14T15:58:39.722Z,16.87
2022-10-14T16:01:06.620Z,16.88
2022-10-14T16:03:37.209Z,16.80
2022-10-14T16:06:05.422Z,16.92
2022-10-14T16:08:31.909Z,16.92
2022-10-14T16:10:59.168Z,17.09
2022-10-14T16:13:25.740Z,17.16
2022-10-14T16:15:54.848Z,17.03
2022-10-14T16:18:23.286Z,17.26
2022-10-14T16:20:49.807Z,17.20
2022-10-14T16:23:18.288Z,17.25
2022-10-14T16:25:46.644Z,17.16
2022-10-14T16:28:13.425Z,17.42
2022-10-14T16:30:44.955Z,17.30
2022-10-14T16:35:49.266Z,17.35
2022-10-14T16:38:15.746Z,17.19
2022-10-14T16:40:42.217Z,17.07
2022-10-14T16:43:09.511Z,17.23
2022-10-14T16:45:36.266Z,17.25
2022-10-14T16:48:02.994Z,17.09
2022-10-14T16:50:29.514Z,17.01
2022-10-14T16:53:34.406Z,17.24
2022-10-14T16:56:00.894Z,16.97
2022-10-14T16:58:28.112Z,16.88
2022-10-14T17:00:55.132Z,16.93
2022-10-14T17:03:21.575Z,16.97
2022-10-14T17:05:48.114Z,17.13
2022-10-14T17:08:14.631Z,17.22
2022-10-14T17:10:41.081Z,17.12
2022-10-14T17:13:08.227Z,17.13
2022-10-14T17:15:34.690Z,17.12
2022-10-14T17:18:01.232Z,17.05
2022-10-14T17:20:28.266Z,16.99
2022-10-14T17:22:55.166Z,16.99
2022-10-14T17:25:22.454Z,16.99
2022-10-14T17:27:49.422Z,16.93
2022-10-14T17:30:16.985Z,16.90
2022-10-14T17:32:43.870Z,16.96
2022-10-14T17:35:14.359Z,16.59
2022-10-14T17:37:42.482Z,16.76
2022-10-14T17:40:09.497Z,16.74
2022-10-14T17:42:35.982Z,16.46
2022-10-14T17:45:02.877Z,16.66
2022-10-14T17:47:29.637Z,16.51
2022-10-14T17:49:56.084Z,16.62
2022-10-14T17:52:22.548Z,16.45
2022-10-14T17:54:49.002Z,16.37
2022-10-14T17:57:15.435Z,16.45
2022-10-14T17:59:41.878Z,16.60
2022-10-14T18:02:14.994Z,16.60
2022-10-14T18:04:41.881Z,16.53
2022-10-14T18:07:09.048Z,16.58
2022-10-14T18:09:35.593Z,16.49
2022-10-14T18:12:10.208Z,16.55
2022-10-14T18:14:41.048Z,16.36
2022-10-14T18:17:10.817Z,16.26
2022-10-14T18:19:37.337Z,16.04
2022-10-14T18:22:03.960Z,15.89
2022-10-14T18:24:30.484Z,16.35
2022-10-14T18:26:57.782Z,16.08
2022-10-14T18:29:24.612Z,16.15
2022-10-14T18:34:18.648Z,16.21
2022-10-14T18:36:45.526Z,16.15
2022-10-14T18:39:15.545Z,16.41
2022-10-14T18:41:43.894Z,16.31
2022-10-14T18:44:10.436Z,16.57
2022-10-14T18:46:38.349Z,16.28
2022-10-14T18:49:06.466Z,16.58
2022-10-14T18:51:35.406Z,16.32
2022-10-14T18:54:05.334Z,16.41
2022-10-14T18:56:34.720Z,16.39
2022-10-14T19:01:36.511Z,16.63
2022-10-14T19:04:05.583Z,16.47
2022-10-14T19:06:32.928Z,16.38
2022-10-14T19:09:02.792Z,16.45
2022-10-14T19:11:30.369Z,16.31
2022-10-14T19:13:58.716Z,16.20
2022-10-14T19:16:27.394Z,16.40
2022-10-14T19:19:01.730Z,16.32
2022-10-14T19:21:30.549Z,16.30
2022-10-14T19:23:59.199Z,16.47
2022-10-14T19:26:28.670Z,16.45
2022-10-14T19:28:58.526Z,16.45
2022-10-14T19:31:29.717Z,16.31
2022-10-14T19:33:56.949Z,16.58
2022-10-14T19:36:25.566Z,16.39
2022-10-14T19:39:00.049Z,16.28
2022-10-14T19:41:28.529Z,16.05
2022-10-14T19:43:56.544Z,16.24
2022-10-14T19:46:26.596Z,16.02
2022-10-14T19:48:55.693Z,16.11
2022-10-14T19:51:22.244Z,16.35
2022-10-14T19:53:49.524Z,16.22
2022-10-14T19:56:16.006Z,16.48
2022-10-14T19:58:44.777Z,16.49
2022-10-14T20:01:16.927Z,16.38
2022-10-14T20:03:43.622Z,16.49
2022-10-14T20:06:11.918Z,16.41
2022-10-14T20:08:38.481Z,16.58
2022-10-14T20:11:09.847Z,16.59
2022-10-14T20:13:37.667Z,16.38
2022-10-14T20:16:05.932Z,16.27
2022-10-14T20:18:32.670Z,16.55
2022-10-14T20:21:00.849Z,16.35
2022-10-14T20:23:27.701Z,16.20
2022-10-14T20:26:05.974Z,16.49
2022-10-14T20:28:35.432Z,16.35
2022-10-14T20:31:02.088Z,16.48
2022-10-14T20:33:31.894Z,16.35
2022-10-14T20:36:05.874Z,16.59
2022-10-14T20:38:32.913Z,16.46
2022-10-14T20:41:07.584Z,16.48
2022-10-14T20:43:34.177Z,16.60
2022-10-14T20:46:00.898Z,16.16
2022-10-14T20:48:27.376Z,16.17
2022-10-14T20:50:53.792Z,16.28
2022-10-14T20:53:20.281Z,16.43
2022-10-14T20:55:46.742Z,16.47
2022-10-14T20:58:13.253Z,16.37
2022-10-14T21:00:39.744Z,16.28
2022-10-14T21:03:06.213Z,16.14
2022-10-14T21:05:36.871Z,16.27
2022-10-14T21:08:04.484Z,16.75
2022-10-14T21:10:31.006Z,16.64
2022-10-14T21:12:57.503Z,16.58
2022-10-14T21:15:26.868Z,16.73
2022-10-14T21:17:53.930Z,16.58
2022-10-14T21:20:20.536Z,16.61
2022-10-14T21:22:47.016Z,16.86
2022-10-14T21:25:14.227Z,16.77
2022-10-14T21:27:40.949Z,16.81
2022-10-14T21:30:08.011Z,16.90
2022-10-14T21:32:34.469Z,16.71
2022-10-14T21:35:00.933Z,16.63
2022-10-14T21:37:27.386Z,16.55
2022-10-14T21:39:53.937Z,16.68
2022-10-14T21:42:20.737Z,16.49
2022-10-14T21:44:47.391Z,16.56
2022-10-14T21:47:13.898Z,16.45
2022-10-14T21:49:42.650Z,16.64
2022-10-14T21:52:09.120Z,16.72
2022-10-14T21:54:35.570Z,16.60
2022-10-14T21:57:02.023Z,16.52
2022-10-14T21:59:28.591Z,16.72
2022-10-14T22:01:59.005Z,16.63
2022-10-14T22:04:35.936Z,16.71
2022-10-14T22:07:06.590Z,16.70
2022-10-14T22:09:33.054Z,16.58
2022-10-14T22:11:59.493Z,16.51
2022-10-14T22:14:25.961Z,16.47
2022-10-14T22:16:52.413Z,16.62
2022-10-14T22:19:18.918Z,16.67
2022-10-14T22:21:46.408Z,16.76
2022-10-14T22:24:12.987Z,16.76
2022-10-14T22:26:40.513Z,16.65
2022-10-14T22:29:10.685Z,16.73
2022-10-14T22:31:37.961Z,16.61
2022-10-14T22:34:06.328Z,16.67
2022-10-14T22:36:33.607Z,16.78
2022-10-14T22:39:05.845Z,16.69
2022-10-14T22:41:35.765Z,16.74
2022-10-14T22:44:04.548Z,16.73
2022-10-14T22:46:32.946Z,16.80
2022-10-14T22:49:00.851Z,16.69
2022-10-14T22:51:36.146Z,16.64
2022-10-14T22:54:03.164Z,16.96
2022-10-14T22:56:31.244Z,16.88
2022-10-14T22:59:05.611Z,16.79
2022-10-14T23:01:32.297Z,16.79
2022-10-14T23:03:59.664Z,16.79
2022-10-14T23:06:26.700Z,16.72
2022-10-14T23:08:54.372Z,16.66
2022-10-14T23:11:22.289Z,16.82
2022-10-14T23:13:49.106Z,16.82
2022-10-14T23:16:19.048Z,16.60
2022-10-14T23:18:46.148Z,16.59
2022-10-14T23:21:16.811Z,17.00
2022-10-14T23:23:43.828Z,16.92
2022-10-14T23:26:12.054Z,16.69
2022-10-14T23:28:39.390Z,16.85
2022-10-14T23:31:14.171Z,17.00
2022-10-14T23:33:41.084Z,16.81
2022-10-14T23:36:10.066Z,16.76
2022-10-14T23:38:36.933Z,16.53
2022-10-14T23:41:04.334Z,16.90
2022-10-14T23:43:31.150Z,16.84
2022-10-14T23:45:57.844Z,16.91
2022-10-14T23:48:24.977Z,16.62
2022-10-14T23:50:51.582Z,16.96
2022-10-14T23:53:18.531Z,16.97
2022-10-14T23:55:45.449Z,16.72
2022-10-14T23:58:12.676Z,16.75
